createdAt,value
2023-04-07T00:01:31.380Z,9.80
2023-04-07T00:04:18.606Z,9.80
2023-04-07T00:07:05.738Z,9.52
2023-04-07T00:09:52.652Z,9.35
2023-04-07T00:12:39.647Z,9.70
2023-04-07T00:15:26.725Z,9.75
2023-04-07T00:18:13.702Z,9.88
2023-04-07T00:21:00.705Z,10.73
2023-04-07T00:23:47.834Z,10.52
2023-04-07T00:26:34.767Z,10.00
2023-04-07T00:29:21.857Z,9.77
2023-04-07T00:32:08.734Z,8.57
2023-04-07T00:34:55.803Z,10.02
2023-04-07T00:37:42.815Z,9.77
2023-04-07T00:40:29.809Z,9.13
2023-04-07T00:43:16.806Z,9.63
2023-04-07T00:46:04.024Z,8.75
2023-04-07T00:48:51.032Z,8.43
2023-04-07T00:51:38.167Z,7.75
2023-04-07T00:54:25.426Z,8.48
2023-04-07T00:57:12.613Z,9.02
2023-04-07T00:59:59.784Z,8.32
2023-04-07T01:03:00.187Z,9.18
2023-04-07T01:05:56.347Z,8.38
2023-04-07T01:09:12.523Z,8.50
2023-04-07T01:12:31.988Z,9.52
2023-04-07T01:15:22.687Z,8.63
2023-04-07T01:18:15.508Z,8.48
2023-04-07T01:21:17.447Z,9.13
2023-04-07T01:24:40.892Z,8.75
2023-04-07T01:30:30.978Z,8.60
2023-04-07T01:33:19.152Z,8.20
2023-04-07T01:36:07.966Z,7.63
2023-04-07T01:38:56.008Z,11.75
2023-04-07T01:41:44.943Z,8.40
2023-04-07T01:44:32.958Z,7.85
2023-04-07T01:47:20.724Z,8.80
2023-04-07T01:50:10.200Z,7.97
2023-04-07T01:52:57.558Z,8.18
2023-04-07T01:55:45.119Z,8.50
2023-04-07T01:58:32.034Z,8.02
2023-04-07T02:01:19.254Z,7.38
2023-04-07T02:04:16.564Z,7.70
2023-04-07T02:07:09.594Z,8.50
2023-04-07T02:09:59.136Z,7.93
2023-04-07T02:12:47.800Z,7.32
2023-04-07T02:15:37.525Z,7.85
2023-04-07T02:18:27.226Z,7.70
2023-04-07T02:21:16.067Z,8.43
2023-04-07T02:24:06.856Z,8.82
2023-04-07T02:26:53.750Z,8.10
2023-04-07T02:29:40.852Z,7.97
2023-04-07T02:32:27.785Z,8.10
2023-04-07T02:35:16.683Z,7.68
2023-04-07T02:38:03.621Z,7.60
2023-04-07T02:40:50.600Z,8.88
2023-04-07T02:43:37.527Z,8.40
2023-04-07T02:46:24.496Z,8.52
2023-04-07T02:49:11.699Z,8.23
2023-04-07T02:51:58.670Z,7.85
2023-04-07T02:54:45.598Z,9.50
2023-04-07T02:57:32.542Z,9.75
2023-04-07T03:00:19.586Z,8.75
2023-04-07T03:03:07.167Z,8.65
2023-04-07T03:05:54.304Z,10.30
2023-04-07T03:08:42.297Z,9.65
2023-04-07T03:11:29.288Z,9.25
2023-04-07T03:14:16.458Z,8.80
2023-04-07T03:17:04.435Z,9.75
2023-04-07T03:19:51.964Z,9.00
2023-04-07T03:22:38.932Z,8.70
2023-04-07T03:25:26.710Z,8.45
2023-04-07T03:28:13.666Z,8.93
2023-04-07T03:31:00.656Z,8.73
2023-04-07T03:33:47.596Z,8.75
2023-04-07T03:36:34.546Z,7.82
2023-04-07T03:39:21.493Z,9.70
2023-04-07T03:42:08.516Z,9.48
2023-04-07T03:44:55.886Z,9.30
2023-04-07T03:47:42.897Z,8.55
2023-04-07T03:50:29.824Z,9.13
2023-04-07T03:53:16.931Z,8.73
2023-04-07T03:56:04.419Z,8.90
2023-04-07T03:58:51.380Z,8.00
2023-04-07T04:01:38.479Z,9.80
2023-04-07T04:04:25.616Z,8.52
2023-04-07T04:07:12.561Z,8.90
2023-04-07T04:09:59.516Z,8.40
2023-04-07T04:12:47.926Z,8.52
2023-04-07T04:15:34.976Z,11.73
2023-04-07T04:18:21.974Z,7.63
2023-04-07T04:21:09.397Z,8.43
2023-04-07T04:23:56.319Z,7.22
2023-04-07T04:26:43.272Z,10.13
2023-04-07T04:29:32.318Z,9.40
2023-04-07T04:32:20.209Z,9.45
2023-04-07T04:35:07.403Z,8.88
2023-04-07T04:37:54.613Z,8.52
2023-04-07T04:40:42.282Z,8.10
2023-04-07T04:43:29.193Z,8.18
2023-04-07T04:46:17.302Z,8.45
2023-04-07T04:49:04.199Z,10.73
2023-04-07T04:51:51.229Z,9.57
2023-04-07T04:54:38.180Z,9.07
2023-04-07T04:57:25.464Z,9.52
2023-04-07T05:00:13.189Z,10.07
2023-04-07T05:03:00.265Z,9.48
2023-04-07T05:05:48.618Z,10.20
2023-04-07T05:08:35.672Z,10.95
2023-04-07T05:11:22.635Z,9.75
2023-04-07T05:14:09.616Z,8.98
2023-04-07T05:16:56.908Z,9.48
2023-04-07T05:19:43.915Z,8.95
2023-04-07T05:22:30.864Z,8.90
2023-04-07T05:25:17.833Z,8.20
2023-04-07T05:28:04.863Z,9.73
2023-04-07T05:30:51.822Z,13.68
2023-04-07T05:33:38.783Z,13.48
2023-04-07T05:36:25.781Z,13.77
2023-04-07T05:39:12.796Z,13.90
2023-04-07T05:41:59.725Z,12.07
2023-04-07T05:44:46.663Z,9.65
2023-04-07T05:47:33.685Z,8.82
2023-04-07T05:50:20.697Z,10.82
2023-04-07T05:53:07.637Z,9.98
2023-04-07T05:55:54.575Z,9.98
2023-04-07T05:58:41.542Z,9.90
2023-04-07T06:01:29.362Z,9.85
2023-04-07T06:04:16.408Z,8.85
2023-04-07T06:07:03.348Z,7.97
2023-04-07T06:09:50.499Z,8.48
2023-04-07T06:12:37.355Z,8.27
2023-04-07T06:15:24.405Z,8.05
2023-04-07T06:18:11.332Z,8.82
2023-04-07T06:20:58.302Z,8.57
2023-04-07T06:23:45.345Z,8.75
2023-04-07T06:26:32.579Z,8.98
2023-04-07T06:29:19.538Z,7.38
2023-04-07T06:32:06.764Z,8.15
2023-04-07T06:34:53.709Z,10.25
2023-04-07T06:37:41.096Z,13.20
2023-04-07T06:40:28.221Z,10.02
2023-04-07T06:43:15.252Z,9.77
2023-04-07T06:46:02.205Z,8.88
2023-04-07T06:48:49.178Z,8.52
2023-04-07T06:51:36.330Z,8.95
2023-04-07T06:54:23.370Z,8.65
2023-04-07T06:57:12.188Z,8.45
2023-04-07T06:59:59.134Z,8.40
2023-04-07T07:02:46.444Z,9.70
2023-04-07T07:05:33.525Z,8.27
2023-04-07T07:08:20.703Z,8.30
2023-04-07T07:11:07.886Z,9.27
2023-04-07T07:13:55.087Z,8.25
2023-04-07T07:16:41.997Z,8.90
2023-04-07T07:19:28.956Z,8.55
2023-04-07T07:22:15.953Z,7.82
2023-04-07T07:25:03.415Z,7.95
2023-04-07T07:27:53.351Z,9.43
2023-04-07T07:30:43.496Z,9.32
2023-04-07T07:33:30.718Z,10.25
2023-04-07T07:36:18.107Z,7.43
2023-04-07T07:39:05.756Z,8.18
2023-04-07T07:41:53.048Z,8.15
2023-04-07T07:44:39.950Z,7.63
2023-04-07T07:47:26.991Z,7.97
2023-04-07T07:50:14.027Z,8.05
2023-04-07T07:53:01.500Z,8.52
2023-04-07T07:55:48.487Z,8.40
2023-04-07T07:58:35.564Z,9.18
2023-04-07T08:01:22.472Z,8.80
2023-04-07T08:04:09.758Z,9.55
2023-04-07T08:06:56.917Z,8.73
2023-04-07T08:09:43.826Z,8.75
2023-04-07T08:12:31.096Z,9.77
2023-04-07T08:15:18.020Z,8.65
2023-04-07T08:18:06.426Z,8.73
2023-04-07T08:20:53.732Z,9.05
2023-04-07T08:23:40.951Z,8.85
2023-04-07T08:26:27.986Z,8.52
2023-04-07T08:29:15.457Z,9.48
2023-04-07T08:32:02.527Z,8.98
2023-04-07T08:34:49.497Z,8.32
2023-04-07T08:37:37.566Z,9.98
2023-04-07T08:40:24.588Z,9.65
2023-04-07T08:43:14.128Z,9.48
2023-04-07T08:46:02.852Z,10.45
2023-04-07T08:48:52.663Z,8.75
2023-04-07T08:51:50.667Z,10.60
2023-04-07T08:54:38.487Z,10.10
2023-04-07T08:57:25.611Z,9.38
2023-04-07T09:00:13.763Z,9.75
2023-04-07T09:03:01.532Z,9.10
2023-04-07T09:05:49.656Z,9.07
2023-04-07T09:08:36.607Z,10.77
2023-04-07T09:11:23.808Z,10.07
2023-04-07T09:14:10.875Z,9.65
2023-04-07T09:17:00.173Z,9.55
2023-04-07T09:19:48.063Z,10.65
2023-04-07T09:22:42.582Z,11.10
2023-04-07T09:25:30.339Z,11.30
2023-04-07T09:28:17.302Z,9.75
2023-04-07T09:31:04.305Z,9.75
2023-04-07T09:33:51.784Z,8.95
2023-04-07T09:36:42.372Z,10.25
2023-04-07T09:39:29.659Z,10.50
2023-04-07T09:42:16.763Z,10.60
2023-04-07T09:45:04.068Z,10.45
2023-04-07T09:47:51.838Z,10.15
2023-04-07T09:50:42.100Z,10.30
2023-04-07T09:54:04.608Z,11.55
2023-04-07T09:56:51.475Z,10.38
2023-04-07T09:59:45.061Z,10.45
2023-04-07T10:02:32.823Z,11.55
2023-04-07T10:05:22.650Z,11.25
2023-04-07T10:08:10.258Z,10.55
2023-04-07T10:10:58.787Z,10.55
2023-04-07T10:13:46.643Z,11.63
2023-04-07T10:16:34.812Z,11.35
2023-04-07T10:19:22.688Z,11.63
2023-04-07T10:22:10.256Z,10.90
2023-04-07T10:25:11.149Z,11.50
2023-04-07T10:28:03.271Z,12.23
2023-04-07T10:30:51.325Z,10.77
2023-04-07T10:33:48.987Z,12.00
2023-04-07T10:36:36.779Z,10.98
2023-04-07T10:39:24.204Z,10.68
2023-04-07T10:42:59.147Z,9.90
2023-04-07T10:45:57.843Z,10.70
2023-04-07T10:49:09.148Z,8.70
2023-04-07T10:52:31.819Z,10.52
2023-04-07T10:55:54.851Z,9.23
2023-04-07T10:58:42.096Z,11.80
2023-04-07T11:01:29.161Z,11.00
2023-04-07T11:04:16.214Z,10.43
2023-04-07T11:07:03.225Z,10.63
2023-04-07T11:09:50.492Z,8.90
2023-04-07T11:12:37.434Z,10.45
2023-04-07T11:15:24.480Z,11.45
2023-04-07T11:18:19.399Z,10.18
2023-04-07T11:21:08.156Z,11.25
2023-04-07T11:23:55.060Z,9.63
2023-04-07T11:26:42.124Z,10.27
2023-04-07T11:29:32.452Z,10.82
2023-04-07T11:32:26.149Z,10.25
2023-04-07T11:35:13.315Z,11.15
2023-04-07T11:38:01.828Z,9.98
2023-04-07T11:40:48.847Z,10.73
2023-04-07T11:43:37.749Z,11.50
2023-04-07T11:46:24.754Z,10.00
2023-04-07T11:49:14.566Z,10.68
2023-04-07T11:52:04.500Z,10.52
2023-04-07T11:54:51.505Z,10.93
2023-04-07T11:57:38.422Z,10.38
2023-04-07T12:00:25.812Z,11.07
2023-04-07T12:03:16.465Z,11.35
2023-04-07T12:06:04.521Z,11.48
2023-04-07T12:08:51.471Z,10.32
2023-04-07T12:11:49.650Z,11.13
2023-04-07T12:14:37.297Z,10.82
2023-04-07T12:17:26.445Z,11.25
2023-04-07T12:20:14.094Z,10.52
2023-04-07T12:23:01.393Z,10.18
2023-04-07T12:25:48.428Z,10.07
2023-04-07T12:28:35.314Z,10.95
2023-04-07T12:31:22.261Z,12.88
2023-04-07T12:34:09.662Z,10.98
2023-04-07T12:36:56.598Z,11.68
2023-04-07T12:39:43.542Z,12.02
2023-04-07T12:42:30.544Z,13.57
2023-04-07T12:45:17.518Z,12.75
2023-04-07T12:48:04.906Z,11.27
2023-04-07T12:50:52.152Z,11.68
2023-04-07T12:53:39.108Z,12.13
2023-04-07T12:56:25.951Z,11.70
2023-04-07T12:59:13.607Z,11.77
2023-04-07T13:02:01.049Z,11.40
2023-04-07T13:04:48.148Z,11.80
2023-04-07T13:07:36.310Z,12.60
2023-04-07T13:10:23.203Z,12.40
2023-04-07T13:13:10.235Z,11.57
2023-04-07T13:15:57.519Z,11.25
2023-04-07T13:18:44.457Z,11.63
2023-04-07T13:24:21.922Z,12.90
2023-04-07T13:27:08.943Z,12.82
2023-04-07T13:29:56.133Z,12.25
2023-04-07T13:32:43.164Z,11.95
2023-04-07T13:35:35.442Z,11.45
2023-04-07T13:38:22.480Z,11.85
2023-04-07T13:41:09.454Z,11.60
2023-04-07T13:43:56.715Z,12.00
2023-04-07T13:46:43.722Z,12.43
2023-04-07T13:49:30.762Z,12.43
2023-04-07T13:52:17.938Z,11.27
2023-04-07T13:55:05.716Z,11.02
2023-04-07T13:57:53.189Z,12.18
2023-04-07T14:00:40.411Z,11.43
2023-04-07T14:03:28.227Z,11.38
2023-04-07T14:06:16.683Z,12.32
2023-04-07T14:09:04.149Z,10.40
2023-04-07T14:11:51.450Z,12.68
2023-04-07T14:14:38.751Z,11.82
2023-04-07T14:17:26.105Z,11.05
2023-04-07T14:20:13.089Z,11.85
2023-04-07T14:22:59.953Z,11.23
2023-04-07T14:25:47.629Z,12.32
2023-04-07T14:28:34.487Z,11.15
2023-04-07T14:31:21.439Z,11.77
2023-04-07T14:34:08.780Z,11.30
2023-04-07T14:36:58.667Z,10.88
2023-04-07T14:39:55.238Z,12.68
2023-04-07T14:45:36.158Z,11.13
2023-04-07T14:48:23.294Z,11.70
2023-04-07T14:51:12.884Z,10.95
2023-04-07T14:53:59.944Z,11.98
2023-04-07T14:56:46.867Z,11.68
2023-04-07T14:59:34.270Z,11.05
2023-04-07T15:02:22.084Z,12.50
2023-04-07T15:05:09.431Z,11.73
2023-04-07T15:07:57.092Z,11.75
2023-04-07T15:10:44.229Z,12.27
2023-04-07T15:13:31.159Z,10.52
2023-04-07T15:16:18.219Z,11.25
2023-04-07T15:19:05.247Z,11.65
2023-04-07T15:21:52.156Z,12.43
2023-04-07T15:24:39.084Z,11.70
2023-04-07T15:27:26.017Z,11.10
2023-04-07T15:30:13.174Z,11.05
2023-04-07T15:33:02.713Z,11.40
2023-04-07T15:35:50.492Z,11.02
2023-04-07T15:38:39.242Z,10.90
2023-04-07T15:41:27.326Z,10.88
2023-04-07T15:44:18.870Z,10.88
2023-04-07T15:47:06.765Z,10.82
2023-04-07T15:49:54.031Z,10.27
2023-04-07T15:52:40.945Z,9.95
2023-04-07T15:55:27.869Z,9.90
2023-04-07T15:58:14.839Z,10.05
2023-04-07T16:01:01.877Z,9.07
2023-04-07T16:03:49.236Z,9.32
2023-04-07T16:06:36.492Z,10.02
2023-04-07T16:09:23.515Z,8.38
2023-04-07T16:12:10.463Z,9.65
2023-04-07T16:14:58.647Z,9.35
2023-04-07T16:17:47.777Z,9.35
2023-04-07T16:20:34.703Z,7.53
2023-04-07T16:23:21.997Z,8.77
2023-04-07T16:26:08.939Z,8.05
2023-04-07T16:28:55.888Z,8.82
2023-04-07T16:31:44.336Z,9.02
2023-04-07T16:34:31.340Z,8.38
2023-04-07T16:37:18.292Z,8.32
2023-04-07T16:40:06.304Z,9.50
2023-04-07T16:42:53.267Z,8.23
2023-04-07T16:45:40.152Z,9.25
2023-04-07T16:48:27.182Z,9.13
2023-04-07T16:51:17.834Z,10.27
2023-04-07T16:54:05.930Z,9.38
2023-04-07T16:56:52.850Z,9.45
2023-04-07T16:59:40.176Z,9.70
2023-04-07T17:02:27.818Z,8.98
2023-04-07T17:05:15.009Z,8.07
2023-04-07T17:08:01.960Z,9.05
2023-04-07T17:10:48.905Z,9.65
2023-04-07T17:13:36.507Z,9.85
2023-04-07T17:16:24.068Z,9.15
2023-04-07T17:19:11.034Z,10.10
2023-04-07T17:22:04.083Z,8.52
2023-04-07T17:24:51.975Z,9.25
2023-04-07T17:27:39.010Z,9.00
2023-04-07T17:30:25.926Z,9.27
2023-04-07T17:33:12.949Z,8.88
2023-04-07T17:36:04.125Z,8.23
2023-04-07T17:38:51.252Z,8.75
2023-04-07T17:41:38.557Z,9.18
2023-04-07T17:44:25.626Z,9.52
2023-04-07T17:47:13.130Z,9.52
2023-04-07T17:50:00.060Z,9.40
2023-04-07T17:52:47.024Z,10.75
2023-04-07T17:55:34.004Z,11.68
2023-04-07T17:58:21.073Z,10.80
2023-04-07T18:01:10.676Z,10.68
2023-04-07T18:04:00.167Z,10.75
2023-04-07T18:06:47.198Z,10.10
2023-04-07T18:09:34.328Z,10.65
2023-04-07T18:12:21.621Z,10.35
2023-04-07T18:15:09.569Z,9.50
2023-04-07T18:17:57.129Z,9.55
2023-04-07T18:20:44.136Z,10.00
2023-04-07T18:23:31.122Z,9.10
2023-04-07T18:26:18.135Z,9.60
2023-04-07T18:29:05.311Z,8.88
2023-04-07T18:31:52.294Z,10.52
2023-04-07T18:34:39.387Z,9.07
2023-04-07T18:37:26.318Z,9.88
2023-04-07T18:40:13.597Z,10.43
2023-04-07T18:43:00.620Z,10.52
2023-04-07T18:45:47.778Z,9.88
2023-04-07T18:48:34.923Z,9.82
2023-04-07T18:51:21.914Z,9.23
2023-04-07T18:54:09.039Z,10.18
2023-04-07T18:56:56.314Z,9.55
2023-04-07T18:59:44.894Z,10.23
2023-04-07T19:02:32.035Z,10.85
2023-04-07T19:05:22.384Z,11.02
2023-04-07T19:08:11.557Z,10.75
2023-04-07T19:10:58.470Z,10.90
2023-04-07T19:13:45.486Z,11.13
2023-04-07T19:16:34.412Z,12.23
2023-04-07T19:19:21.370Z,10.70
2023-04-07T19:22:08.284Z,11.88
2023-04-07T19:24:55.827Z,11.75
2023-04-07T19:27:42.750Z,11.68
2023-04-07T19:30:29.751Z,11.80
2023-04-07T19:33:16.662Z,12.40
2023-04-07T19:36:04.687Z,12.20
2023-04-07T19:38:51.651Z,12.40
2023-04-07T19:41:38.872Z,12.20
2023-04-07T19:44:26.655Z,11.05
2023-04-07T19:47:13.636Z,11.23
2023-04-07T19:50:00.805Z,12.25
2023-04-07T19:52:47.782Z,11.70
2023-04-07T19:55:34.697Z,12.20
2023-04-07T19:58:22.822Z,11.00
2023-04-07T20:01:17.788Z,12.48
2023-04-07T20:04:04.834Z,12.65
2023-04-07T20:06:32.964Z,11.40
2023-04-07T20:09:00.502Z,22.50
2023-04-07T20:11:28.045Z,24.58
2023-04-07T20:13:54.694Z,27.17
2023-04-07T20:16:21.674Z,24.98
2023-04-07T20:18:49.243Z,20.48
2023-04-07T20:21:16.408Z,20.02
2023-04-07T20:23:43.136Z,18.10
2023-04-07T20:26:10.346Z,16.80
2023-04-07T20:28:36.974Z,15.60
2023-04-07T20:31:03.664Z,16.17
2023-04-07T20:33:30.525Z,14.32
2023-04-07T20:35:57.244Z,14.75
2023-04-07T20:38:25.035Z,14.38
2023-04-07T20:40:52.050Z,13.82
2023-04-07T20:43:22.013Z,13.68
2023-04-07T20:45:48.953Z,13.93
2023-04-07T20:48:17.218Z,13.88
2023-04-07T20:50:43.803Z,13.43
2023-04-07T20:53:10.468Z,16.38
2023-04-07T20:55:37.124Z,14.85
2023-04-07T20:58:03.723Z,13.73
2023-04-07T21:00:30.380Z,13.77
2023-04-07T21:02:57.075Z,13.70
2023-04-07T21:05:23.716Z,14.23
2023-04-07T21:07:50.515Z,14.18
2023-04-07T21:10:17.286Z,14.68
2023-04-07T21:12:43.903Z,13.88
2023-04-07T21:15:11.560Z,14.20
2023-04-07T21:17:38.411Z,14.60
2023-04-07T21:20:05.488Z,14.05
2023-04-07T21:22:32.087Z,13.95
2023-04-07T21:24:58.727Z,15.77
2023-04-07T21:27:25.643Z,14.73
2023-04-07T21:29:52.281Z,15.05
2023-04-07T21:32:19.001Z,13.50
2023-04-07T21:34:45.696Z,14.30
2023-04-07T21:37:12.306Z,15.20
2023-04-07T21:39:38.956Z,13.48
2023-04-07T21:42:05.898Z,14.55
2023-04-07T21:44:32.665Z,13.35
2023-04-07T21:46:59.439Z,14.38
2023-04-07T21:49:26.452Z,14.73
2023-04-07T21:51:53.649Z,16.33
2023-04-07T21:54:20.342Z,15.02
2023-04-07T21:56:49.070Z,15.02
2023-04-07T21:59:17.297Z,14.07
2023-04-07T22:01:46.076Z,14.23
2023-04-07T22:04:13.319Z,14.20
2023-04-07T22:06:40.136Z,13.65
2023-04-07T22:09:07.416Z,15.20
2023-04-07T22:11:34.568Z,14.48
2023-04-07T22:14:01.323Z,14.48
2023-04-07T22:16:28.000Z,13.98
2023-04-07T22:18:54.661Z,15.52
2023-04-07T22:21:21.718Z,14.52
2023-04-07T22:23:49.902Z,13.93
2023-04-07T22:26:17.391Z,13.77
2023-04-07T22:28:44.044Z,14.25
2023-04-07T22:31:10.869Z,14.32
2023-04-07T22:33:37.785Z,15.43
2023-04-07T22:36:04.785Z,15.27
2023-04-07T22:38:31.531Z,14.32
2023-04-07T22:40:58.162Z,13.20
2023-04-07T22:43:25.119Z,13.98
2023-04-07T22:45:53.905Z,14.20
2023-04-07T22:48:20.650Z,14.23
2023-04-07T22:50:47.296Z,13.77
2023-04-07T22:53:13.897Z,12.82
2023-04-07T22:55:40.796Z,13.98
2023-04-07T22:58:07.424Z,12.95
2023-04-07T23:00:34.191Z,11.35
2023-04-07T23:03:00.966Z,12.98
2023-04-07T23:05:27.747Z,13.30
2023-04-07T23:07:54.719Z,13.15
2023-04-07T23:10:21.712Z,12.13
2023-04-07T23:12:48.357Z,11.30
2023-04-07T23:15:15.239Z,13.57
2023-04-07T23:17:41.903Z,13.65
2023-04-07T23:20:09.537Z,12.73
2023-04-07T23:22:36.182Z,12.43
2023-04-07T23:25:03.116Z,12.35
2023-04-07T23:27:29.728Z,11.32
2023-04-07T23:29:56.412Z,14.32
2023-04-07T23:32:23.049Z,13.82
2023-04-07T23:34:49.691Z,12.18
2023-04-07T23:37:16.391Z,13.05
2023-04-07T23:39:43.574Z,12.05
2023-04-07T23:42:10.647Z,12.73
2023-04-07T23:44:37.266Z,13.95
2023-04-07T23:47:03.913Z,12.05
2023-04-07T23:49:31.324Z,12.02
2023-04-07T23:51:58.028Z,14.27
2023-04-07T23:54:24.750Z,13.32
2023-04-07T23:56:51.381Z,13.32
2023-04-07T23:59:18.127Z,13.27
